createdAt,value
2022-10-30T00:00:29.498Z,55.97
2022-10-30T00:02:56.498Z,55.33
2022-10-30T00:05:24.140Z,52.95
2022-10-30T00:07:50.899Z,57.47
2022-10-30T00:10:18.621Z,53.75
2022-10-30T00:12:45.240Z,52.42
2022-10-30T00:15:11.951Z,49.20
2022-10-30T00:17:38.667Z,46.47
2022-10-30T00:20:06.414Z,45.20
2022-10-30T00:22:33.293Z,44.97
2022-10-30T00:24:59.866Z,41.40
2022-10-30T00:27:27.356Z,45.05
2022-10-30T00:29:53.944Z,44.17
2022-10-30T00:32:20.618Z,47.10
2022-10-30T00:34:47.162Z,43.53
2022-10-30T00:37:13.766Z,41.78
2022-10-30T00:39:40.419Z,39.33
2022-10-30T00:42:13.994Z,37.00
2022-10-30T00:44:52.748Z,38.58
2022-10-30T00:47:36.109Z,36.50
2022-10-30T00:50:02.714Z,35.63
2022-10-30T00:52:34.124Z,34.10
2022-10-30T00:55:07.884Z,33.63
2022-10-30T00:57:37.550Z,34.40
2022-10-30T01:00:06.589Z,34.90
2022-10-30T01:02:33.627Z,33.60
2022-10-30T01:05:01.695Z,28.73
2022-10-30T01:07:28.466Z,36.30
2022-10-30T01:09:55.133Z,40.20
2022-10-30T01:12:21.859Z,38.58
2022-10-30T01:14:55.376Z,40.70
2022-10-30T01:18:02.907Z,35.88
2022-10-30T01:20:55.896Z,41.60
2022-10-30T01:23:34.765Z,39.38
2022-10-30T01:26:19.378Z,40.50
2022-10-30T01:28:51.877Z,36.17
2022-10-30T01:31:27.253Z,30.88
2022-10-30T01:34:32.053Z,34.88
2022-10-30T01:37:05.356Z,33.78
2022-10-30T01:39:35.992Z,32.53
2022-10-30T01:42:40.271Z,37.72
2022-10-30T01:45:07.861Z,27.98
2022-10-30T01:47:37.281Z,30.00
2022-10-30T01:50:06.912Z,31.10
2022-10-30T01:52:58.697Z,31.40
2022-10-30T01:55:42.624Z,34.28
2022-10-30T01:58:34.997Z,34.75
2022-10-30T02:01:02.234Z,33.35
2022-10-30T02:03:29.152Z,34.55
2022-10-30T02:05:55.785Z,35.67
2022-10-30T02:08:22.974Z,37.53
2022-10-30T02:10:52.513Z,34.65
2022-10-30T02:13:20.267Z,37.25
2022-10-30T02:15:47.667Z,37.97
2022-10-30T02:18:14.568Z,38.33
2022-10-30T02:20:41.299Z,35.80
2022-10-30T02:23:09.243Z,35.25
2022-10-30T02:25:35.991Z,33.78
2022-10-30T02:28:02.618Z,33.92
2022-10-30T02:30:29.281Z,33.50
2022-10-30T02:32:56.308Z,34.67
2022-10-30T02:35:23.130Z,32.45
2022-10-30T02:37:49.799Z,30.88
2022-10-30T02:40:16.460Z,28.48
2022-10-30T02:42:43.072Z,29.63
2022-10-30T02:45:10.183Z,29.42
2022-10-30T02:47:36.778Z,29.55
2022-10-30T02:50:03.654Z,29.85
2022-10-30T02:52:30.353Z,27.10
2022-10-30T02:54:56.963Z,28.50
2022-10-30T02:57:23.540Z,31.80
2022-10-30T02:59:50.135Z,29.08
2022-10-30T03:02:16.791Z,30.65
2022-10-30T03:04:43.516Z,30.70
2022-10-30T03:07:10.076Z,31.10
2022-10-30T03:09:36.693Z,32.30
2022-10-30T03:12:03.324Z,27.55
2022-10-30T03:14:29.934Z,28.70
2022-10-30T03:16:56.729Z,28.92
2022-10-30T03:19:23.359Z,25.58
2022-10-30T03:21:50.134Z,28.38
2022-10-30T03:24:16.769Z,26.83
2022-10-30T03:26:43.314Z,28.08
2022-10-30T03:29:09.914Z,26.88
2022-10-30T03:31:36.549Z,27.27
2022-10-30T03:34:03.153Z,24.85
2022-10-30T03:36:29.756Z,27.33
2022-10-30T03:38:56.712Z,25.80
2022-10-30T03:41:23.349Z,24.20
2022-10-30T03:43:50.627Z,22.23
2022-10-30T03:46:17.476Z,24.77
2022-10-30T03:48:44.141Z,23.95
2022-10-30T03:51:10.850Z,29.23
2022-10-30T03:53:37.459Z,28.52
2022-10-30T03:56:05.042Z,31.30
2022-10-30T03:58:31.811Z,38.95
2022-10-30T04:01:03.402Z,41.40
2022-10-30T04:03:30.411Z,37.58
2022-10-30T04:05:57.216Z,40.88
2022-10-30T04:08:24.429Z,37.38
2022-10-30T04:10:51.171Z,36.83
2022-10-30T04:13:18.901Z,40.10
2022-10-30T04:15:55.776Z,39.97
2022-10-30T04:18:25.760Z,40.90
2022-10-30T04:20:52.576Z,41.50
2022-10-30T04:23:21.038Z,41.20
2022-10-30T04:25:48.321Z,41.72
2022-10-30T04:28:15.168Z,40.08
2022-10-30T04:30:41.910Z,40.75
2022-10-30T04:33:12.471Z,41.38
2022-10-30T04:35:39.273Z,38.13
2022-10-30T04:38:11.698Z,36.38
2022-10-30T04:40:40.142Z,35.60
2022-10-30T04:43:07.915Z,34.50
2022-10-30T04:45:35.223Z,39.45
2022-10-30T04:48:07.620Z,37.63
2022-10-30T04:50:34.830Z,35.05
2022-10-30T04:53:07.410Z,34.47
2022-10-30T04:55:34.423Z,39.63
2022-10-30T04:58:03.111Z,38.78
2022-10-30T05:00:31.034Z,37.88
2022-10-30T05:03:01.918Z,37.78
2022-10-30T05:05:31.932Z,38.27
2022-10-30T05:07:58.799Z,35.67
2022-10-30T05:10:25.818Z,33.88
2022-10-30T05:12:54.380Z,36.80
2022-10-30T05:15:21.576Z,36.80
2022-10-30T05:17:53.160Z,37.40
2022-10-30T05:20:20.255Z,36.17
2022-10-30T05:22:47.177Z,37.35
2022-10-30T05:25:13.852Z,34.40
2022-10-30T05:27:40.441Z,33.58
2022-10-30T05:30:07.678Z,33.17
2022-10-30T05:32:34.283Z,30.73
2022-10-30T05:35:00.955Z,30.77
2022-10-30T05:37:27.609Z,34.53
2022-10-30T05:39:54.186Z,34.60
2022-10-30T05:42:20.798Z,30.70
2022-10-30T05:45:00.250Z,30.63
2022-10-30T05:47:28.118Z,31.65
2022-10-30T05:49:54.900Z,34.00
2022-10-30T05:52:21.620Z,35.60
2022-10-30T05:54:48.527Z,31.38
2022-10-30T05:57:15.152Z,36.78
2022-10-30T05:59:41.839Z,34.63
2022-10-30T06:02:08.479Z,36.17
2022-10-30T06:04:35.169Z,37.58
2022-10-30T06:07:01.788Z,38.58
2022-10-30T06:09:28.386Z,40.47
2022-10-30T06:11:55.673Z,37.25
2022-10-30T06:14:22.295Z,38.90
2022-10-30T06:16:48.889Z,37.40
2022-10-30T06:19:18.433Z,40.75
2022-10-30T06:21:46.033Z,35.58
2022-10-30T06:24:13.269Z,41.13
2022-10-30T06:26:40.758Z,39.05
2022-10-30T06:29:07.436Z,41.25
2022-10-30T06:31:34.087Z,39.13
2022-10-30T06:34:00.841Z,37.35
2022-10-30T06:36:27.490Z,37.28
2022-10-30T06:38:54.069Z,34.55
2022-10-30T06:41:23.357Z,36.95
2022-10-30T06:43:52.441Z,39.63
2022-10-30T06:46:19.032Z,38.80
2022-10-30T06:48:45.605Z,36.95
2022-10-30T06:51:15.821Z,36.80
2022-10-30T06:53:42.985Z,33.75
2022-10-30T06:56:10.051Z,36.35
2022-10-30T06:58:39.211Z,33.88
2022-10-30T07:01:06.768Z,32.47
2022-10-30T07:03:34.117Z,29.30
2022-10-30T07:06:01.192Z,29.67
2022-10-30T07:08:27.819Z,26.33
2022-10-30T07:10:57.586Z,26.65
2022-10-30T07:13:24.371Z,26.05
2022-10-30T07:15:51.128Z,27.73
2022-10-30T07:18:17.705Z,26.98
2022-10-30T07:20:44.278Z,27.50
2022-10-30T07:23:11.106Z,26.45
2022-10-30T07:25:37.701Z,27.83
2022-10-30T07:28:04.635Z,24.90
2022-10-30T07:30:31.274Z,28.30
2022-10-30T07:33:03.309Z,28.33
2022-10-30T07:35:31.274Z,27.38
2022-10-30T07:38:10.786Z,27.77
2022-10-30T07:40:37.707Z,29.42
2022-10-30T07:43:05.051Z,28.08
2022-10-30T07:45:32.369Z,26.85
2022-10-30T07:47:59.195Z,30.25
2022-10-30T07:50:26.605Z,25.75
2022-10-30T07:52:53.267Z,27.30
2022-10-30T07:55:19.888Z,29.50
2022-10-30T07:57:46.506Z,30.75
2022-10-30T08:00:15.255Z,31.05
2022-10-30T08:02:42.786Z,32.20
2022-10-30T08:05:16.325Z,31.35
2022-10-30T08:07:45.785Z,29.55
2022-10-30T08:10:12.507Z,30.23
2022-10-30T08:12:40.577Z,30.83
2022-10-30T08:15:08.262Z,30.42
2022-10-30T08:17:42.239Z,30.40
2022-10-30T08:20:09.493Z,29.67
2022-10-30T08:22:45.521Z,30.05
2022-10-30T08:25:12.107Z,32.17
2022-10-30T08:27:38.695Z,32.17
2022-10-30T08:30:05.801Z,32.28
2022-10-30T08:32:32.393Z,30.25
2022-10-30T08:34:59.029Z,34.22
2022-10-30T08:37:25.596Z,30.98
2022-10-30T08:39:52.232Z,31.52
2022-10-30T08:42:18.909Z,32.03
2022-10-30T08:44:45.538Z,31.75
2022-10-30T08:47:12.130Z,30.60
2022-10-30T08:49:38.754Z,30.60
2022-10-30T08:52:09.187Z,29.55
2022-10-30T08:54:36.111Z,29.15
2022-10-30T08:57:02.972Z,26.75
2022-10-30T08:59:29.595Z,26.77
2022-10-30T09:01:56.250Z,25.67
2022-10-30T09:04:22.943Z,25.42
2022-10-30T09:06:49.550Z,25.48
2022-10-30T09:09:16.387Z,23.73
2022-10-30T09:11:42.946Z,22.33
2022-10-30T09:14:09.580Z,24.20
2022-10-30T09:16:36.212Z,24.85
2022-10-30T09:19:02.917Z,26.05
2022-10-30T09:21:29.523Z,22.42
2022-10-30T09:23:56.217Z,22.60
2022-10-30T09:26:22.808Z,21.75
2022-10-30T09:28:49.711Z,23.05
2022-10-30T09:31:16.325Z,22.02
2022-10-30T09:33:42.926Z,21.00
2022-10-30T09:36:09.753Z,20.58
2022-10-30T09:38:36.300Z,26.90
2022-10-30T09:41:20.059Z,21.67
2022-10-30T09:44:16.548Z,22.40
2022-10-30T09:47:27.576Z,21.50
2022-10-30T09:50:23.079Z,19.35
2022-10-30T09:53:10.909Z,20.42
2022-10-30T09:55:44.524Z,17.48
2022-10-30T09:59:01.062Z,18.80
2022-10-30T10:01:33.673Z,18.83
2022-10-30T10:04:21.066Z,17.98
2022-10-30T10:06:56.803Z,15.93
2022-10-30T10:09:27.308Z,14.85
2022-10-30T10:11:59.184Z,14.25
2022-10-30T10:14:33.321Z,17.73
2022-10-30T10:17:04.932Z,15.73
2022-10-30T10:22:44.159Z,14.65
2022-10-30T10:25:14.939Z,14.95
2022-10-30T10:27:52.722Z,16.37
2022-10-30T10:30:21.402Z,15.48
2022-10-30T10:32:52.312Z,15.57
2022-10-30T10:35:36.983Z,17.23
2022-10-30T10:38:09.654Z,17.15
2022-10-30T10:40:45.425Z,16.40
2022-10-30T10:43:24.265Z,16.38
2022-10-30T10:46:13.436Z,17.30
2022-10-30T10:48:48.861Z,16.08
2022-10-30T10:51:34.030Z,14.68
2022-10-30T10:54:25.472Z,14.75
2022-10-30T10:56:52.421Z,15.40
2022-10-30T10:59:26.929Z,15.23
2022-10-30T11:02:03.581Z,14.55
2022-10-30T11:04:49.507Z,13.70
2022-10-30T11:07:24.827Z,12.27
2022-10-30T11:09:56.520Z,12.25
2022-10-30T11:12:36.343Z,11.80
2022-10-30T11:15:18.634Z,12.40
2022-10-30T11:17:59.635Z,12.70
2022-10-30T11:20:38.355Z,11.02
2022-10-30T11:23:41.208Z,10.27
2022-10-30T11:26:25.646Z,11.05
2022-10-30T11:28:57.474Z,10.00
2022-10-30T11:31:34.907Z,9.73
2022-10-30T11:34:28.917Z,9.93
2022-10-30T11:36:55.695Z,10.98
2022-10-30T11:39:29.671Z,12.60
2022-10-30T11:42:07.487Z,10.77
2022-10-30T11:44:42.429Z,11.20
2022-10-30T11:47:11.510Z,11.32
2022-10-30T11:49:48.974Z,11.50
2022-10-30T11:52:18.456Z,12.02
2022-10-30T11:54:54.925Z,10.68
2022-10-30T11:57:23.558Z,11.80
2022-10-30T11:59:54.447Z,10.63
2022-10-30T12:02:28.365Z,10.77
2022-10-30T12:05:02.534Z,11.35
2022-10-30T12:07:35.102Z,11.43
2022-10-30T12:10:03.218Z,10.10
2022-10-30T12:12:41.591Z,9.65
2022-10-30T12:15:10.735Z,10.00
2022-10-30T12:17:38.909Z,8.80
2022-10-30T12:20:07.474Z,8.82
2022-10-30T12:22:35.381Z,8.63
2022-10-30T12:25:15.575Z,8.35
2022-10-30T12:27:42.363Z,8.20
2022-10-30T12:30:17.496Z,7.72
2022-10-30T12:32:54.162Z,8.27
2022-10-30T12:35:58.332Z,7.82
2022-10-30T12:38:36.566Z,7.95
2022-10-30T12:41:18.349Z,7.85
2022-10-30T12:43:52.902Z,7.45
2022-10-30T12:46:49.955Z,9.40
2022-10-30T12:49:24.020Z,8.90
2022-10-30T12:52:02.001Z,9.32
2022-10-30T12:54:39.365Z,8.32
2022-10-30T12:57:12.123Z,9.00
2022-10-30T12:59:50.766Z,8.35
2022-10-30T13:02:32.493Z,9.68
2022-10-30T13:05:07.030Z,9.43
2022-10-30T13:08:04.877Z,7.95
2022-10-30T13:10:52.710Z,7.43
2022-10-30T13:13:23.558Z,7.72
2022-10-30T13:15:52.863Z,7.10
2022-10-30T13:18:22.245Z,7.57
2022-10-30T13:21:01.786Z,8.48
2022-10-30T13:23:47.233Z,9.10
2022-10-30T13:26:39.272Z,11.82
2022-10-30T13:29:33.749Z,12.32
2022-10-30T13:32:25.208Z,11.05
2022-10-30T13:35:20.211Z,12.32
2022-10-30T13:38:14.065Z,13.32
2022-10-30T13:40:46.254Z,12.88
2022-10-30T13:43:21.810Z,13.73
2022-10-30T13:46:07.225Z,13.38
2022-10-30T13:48:33.828Z,13.93
2022-10-30T13:51:38.180Z,14.13
2022-10-30T13:54:17.491Z,16.08
2022-10-30T13:56:46.557Z,16.13
2022-10-30T13:59:34.120Z,15.55
2022-10-30T14:02:22.157Z,15.95
2022-10-30T14:05:12.995Z,15.77
2022-10-30T14:07:55.217Z,17.00
2022-10-30T14:10:32.217Z,17.33
2022-10-30T14:15:32.380Z,17.65
2022-10-30T14:18:13.980Z,16.05
2022-10-30T14:23:20.112Z,15.93
2022-10-30T14:26:10.666Z,15.20
2022-10-30T14:28:40.662Z,16.90
2022-10-30T14:31:10.419Z,16.35
2022-10-30T14:33:52.989Z,16.65
2022-10-30T14:36:19.794Z,15.68
2022-10-30T14:38:53.919Z,14.05
2022-10-30T14:41:20.452Z,14.70
2022-10-30T14:44:19.959Z,16.63
2022-10-30T14:46:54.472Z,16.45
2022-10-30T14:49:37.129Z,18.50
2022-10-30T14:52:29.877Z,19.35
2022-10-30T14:55:50.531Z,17.40
2022-10-30T14:58:25.241Z,18.55
2022-10-30T15:01:16.293Z,18.10
2022-10-30T15:04:15.092Z,23.77
2022-10-30T15:06:50.709Z,23.88
2022-10-30T15:09:41.151Z,26.75
2022-10-30T15:15:05.115Z,28.17
2022-10-30T15:17:43.995Z,22.83
2022-10-30T15:20:32.626Z,31.20
2022-10-30T15:23:10.078Z,33.03
2022-10-30T15:25:47.560Z,26.80
2022-10-30T15:28:19.377Z,24.10
2022-10-30T15:31:02.162Z,24.27
2022-10-30T15:33:31.563Z,27.23
2022-10-30T15:35:59.220Z,25.85
2022-10-30T15:38:25.946Z,23.08
2022-10-30T15:40:58.484Z,23.92
2022-10-30T15:43:30.575Z,26.60
2022-10-30T15:45:57.197Z,24.45
2022-10-30T15:48:27.129Z,22.50
2022-10-30T15:51:01.789Z,29.95
2022-10-30T15:53:36.341Z,29.83
2022-10-30T15:56:03.952Z,25.23
2022-10-30T15:58:31.950Z,31.38
2022-10-30T16:01:00.480Z,36.50
2022-10-30T16:03:28.351Z,28.40
2022-10-30T16:06:16.468Z,27.25
2022-10-30T16:08:45.848Z,29.60
2022-10-30T16:11:13.287Z,26.58
2022-10-30T16:13:40.311Z,32.42
2022-10-30T16:18:41.271Z,24.67
2022-10-30T16:21:10.497Z,26.85
2022-10-30T16:23:42.627Z,29.15
2022-10-30T16:26:26.973Z,31.02
2022-10-30T16:28:53.667Z,32.55
2022-10-30T16:31:21.115Z,30.80
2022-10-30T16:33:48.906Z,33.83
2022-10-30T16:36:18.489Z,33.80
2022-10-30T16:38:48.577Z,30.40
2022-10-30T16:41:15.454Z,36.10
2022-10-30T16:43:48.526Z,33.72
2022-10-30T16:46:15.062Z,48.53
2022-10-30T16:48:56.816Z,45.85
2022-10-30T16:51:23.731Z,46.22
2022-10-30T16:53:53.780Z,41.65
2022-10-30T16:56:29.232Z,35.90
2022-10-30T16:59:08.684Z,35.95
2022-10-30T17:01:35.761Z,33.40
2022-10-30T17:04:02.797Z,38.90
2022-10-30T17:06:42.400Z,39.55
2022-10-30T17:09:25.247Z,38.10
2022-10-30T17:12:25.689Z,40.92
2022-10-30T17:15:13.397Z,42.03
2022-10-30T17:17:41.856Z,38.65
2022-10-30T17:20:33.456Z,33.72
2022-10-30T17:23:18.635Z,36.95
2022-10-30T17:25:45.923Z,37.78
2022-10-30T17:28:33.127Z,39.97
2022-10-30T17:31:21.084Z,36.45
2022-10-30T17:34:03.559Z,43.72
2022-10-30T17:36:30.249Z,48.97
2022-10-30T17:38:57.002Z,44.22
2022-10-30T17:41:23.679Z,43.45
2022-10-30T17:44:01.484Z,46.42
2022-10-30T17:46:28.362Z,39.40
2022-10-30T17:48:54.971Z,41.63
2022-10-30T17:51:21.549Z,41.33
2022-10-30T17:53:48.631Z,48.20
2022-10-30T17:56:35.032Z,41.55
2022-10-30T17:59:02.000Z,40.00
2022-10-30T18:01:28.747Z,38.55
2022-10-30T18:03:56.037Z,48.45
2022-10-30T18:06:25.830Z,48.50
2022-10-30T18:08:53.593Z,49.47
2022-10-30T18:11:24.139Z,46.63
2022-10-30T18:13:52.133Z,50.00
2022-10-30T18:16:19.901Z,46.95
2022-10-30T18:18:46.902Z,46.55
2022-10-30T18:21:15.253Z,43.03
2022-10-30T18:23:57.702Z,54.13
2022-10-30T18:26:27.825Z,67.13
2022-10-30T18:28:54.727Z,59.47
2022-10-30T18:31:24.001Z,62.63
2022-10-30T18:33:50.743Z,56.03
2022-10-30T18:36:20.515Z,59.30
2022-10-30T18:38:47.395Z,66.10
2022-10-30T18:41:18.050Z,67.40
2022-10-30T18:43:46.925Z,66.45
2022-10-30T18:46:14.758Z,61.10
2022-10-30T18:48:41.492Z,68.53
2022-10-30T18:51:16.559Z,66.32
2022-10-30T18:53:51.121Z,73.95
2022-10-30T18:56:22.474Z,65.40
2022-10-30T18:58:49.701Z,64.68
2022-10-30T19:01:17.320Z,58.85
2022-10-30T19:03:45.020Z,70.35
2022-10-30T19:06:14.111Z,70.88
2022-10-30T19:08:40.834Z,70.63
2022-10-30T19:11:12.166Z,78.85
2022-10-30T19:13:40.265Z,74.30
2022-10-30T19:16:11.681Z,76.15
2022-10-30T19:18:38.306Z,73.47
2022-10-30T19:21:07.255Z,74.53
2022-10-30T19:23:37.181Z,72.55
2022-10-30T19:26:03.883Z,80.18
2022-10-30T19:28:30.967Z,74.63
2022-10-30T19:30:57.664Z,79.68
2022-10-30T19:33:25.136Z,77.22
2022-10-30T19:36:04.671Z,87.07
2022-10-30T19:38:32.362Z,81.47
2022-10-30T19:40:59.673Z,101.93
2022-10-30T19:43:26.285Z,93.32
2022-10-30T19:45:55.713Z,95.07
2022-10-30T19:48:34.536Z,102.22
2022-10-30T19:51:11.624Z,105.60
2022-10-30T19:53:39.280Z,112.63
2022-10-30T19:56:06.432Z,107.90
2022-10-30T19:58:33.120Z,100.72
2022-10-30T20:00:59.873Z,108.22
2022-10-30T20:03:26.616Z,96.20
2022-10-30T20:05:54.263Z,102.97
2022-10-30T20:08:25.685Z,107.43
2022-10-30T20:11:02.742Z,97.68
2022-10-30T20:13:30.238Z,101.25
2022-10-30T20:15:59.674Z,117.10
2022-10-30T20:18:30.369Z,116.82
2022-10-30T20:21:02.384Z,122.57
2022-10-30T20:23:29.084Z,98.53
2022-10-30T20:26:01.757Z,114.47
2022-10-30T20:28:37.438Z,119.13
2022-10-30T20:31:05.163Z,102.80
2022-10-30T20:33:31.918Z,114.53
2022-10-30T20:35:58.706Z,113.38
2022-10-30T20:38:30.612Z,116.18
2022-10-30T20:40:59.528Z,107.53
2022-10-30T20:43:31.632Z,111.35
2022-10-30T20:45:59.689Z,98.68
2022-10-30T20:48:27.186Z,102.75
2022-10-30T20:50:55.253Z,111.50
2022-10-30T20:53:22.243Z,111.25
2022-10-30T20:55:48.970Z,121.97
2022-10-30T20:58:15.635Z,117.45
2022-10-30T21:00:42.603Z,129.05
2022-10-30T21:03:11.341Z,125.22
2022-10-30T21:05:43.971Z,129.30
2022-10-30T21:08:12.708Z,125.85
2022-10-30T21:10:40.322Z,129.55
2022-10-30T21:13:09.983Z,131.93
2022-10-30T21:15:41.826Z,129.60
2022-10-30T21:18:09.645Z,129.20
2022-10-30T21:20:37.532Z,130.75
2022-10-30T21:23:04.586Z,125.05
2022-10-30T21:25:32.477Z,131.35
2022-10-30T21:27:59.817Z,127.15
2022-10-30T21:30:26.751Z,121.55
2022-10-30T21:32:53.376Z,124.32
2022-10-30T21:35:20.423Z,119.07
2022-10-30T21:37:47.380Z,111.82
2022-10-30T21:40:14.027Z,113.30
2022-10-30T21:42:41.262Z,114.40
2022-10-30T21:45:08.725Z,111.72
2022-10-30T21:47:35.649Z,101.25
2022-10-30T21:50:06.167Z,109.95
2022-10-30T21:52:34.876Z,100.72
2022-10-30T21:55:01.467Z,100.90
2022-10-30T21:57:29.177Z,99.68
2022-10-30T21:59:58.719Z,100.43
2022-10-30T22:02:28.465Z,103.43
2022-10-30T22:04:55.194Z,101.60
2022-10-30T22:07:21.883Z,95.90
2022-10-30T22:09:48.567Z,102.18
2022-10-30T22:12:15.162Z,103.70
2022-10-30T22:14:41.842Z,98.93
2022-10-30T22:17:08.784Z,102.78
2022-10-30T22:19:35.321Z,92.30
2022-10-30T22:22:01.938Z,91.72
2022-10-30T22:24:28.536Z,92.63
2022-10-30T22:26:55.160Z,91.65
2022-10-30T22:29:21.723Z,84.15
2022-10-30T22:31:49.628Z,77.75
2022-10-30T22:34:16.234Z,80.22
2022-10-30T22:36:42.971Z,88.70
2022-10-30T22:39:13.761Z,80.18
2022-10-30T22:41:40.965Z,75.00
2022-10-30T22:44:11.912Z,87.05
2022-10-30T22:46:38.823Z,86.20
2022-10-30T22:49:06.654Z,92.85
2022-10-30T22:51:37.731Z,80.25
2022-10-30T22:54:07.131Z,74.95
2022-10-30T22:56:36.008Z,76.25
2022-10-30T22:59:06.024Z,80.88
2022-10-30T23:01:35.974Z,75.13
2022-10-30T23:04:05.020Z,70.40
2022-10-30T23:06:33.700Z,75.82
2022-10-30T23:09:02.823Z,73.18
2022-10-30T23:11:29.945Z,84.80
2022-10-30T23:13:57.207Z,70.97
2022-10-30T23:16:25.847Z,77.47
2022-10-30T23:18:55.962Z,71.32
2022-10-30T23:21:24.233Z,73.57
2022-10-30T23:23:51.171Z,71.38
2022-10-30T23:26:20.996Z,72.68
2022-10-30T23:28:49.912Z,77.78
2022-10-30T23:31:23.717Z,78.28
2022-10-30T23:33:51.898Z,80.18
2022-10-30T23:36:19.070Z,84.15
2022-10-30T23:38:54.274Z,77.72
2022-10-30T23:41:22.144Z,80.20
2022-10-30T23:43:52.649Z,73.20
2022-10-30T23:46:19.220Z,88.57
2022-10-30T23:48:45.769Z,72.55
2022-10-30T23:51:12.378Z,83.88
2022-10-30T23:53:39.035Z,83.10
2022-10-30T23:56:06.254Z,85.22
2022-10-30T23:58:32.955Z,75.45
